Time;durP1;ratioP1;P1;durP2;ratioP2;P2;SDS_P1;SDS_P2;PMS_P1;PMS_P2;Temp;Humidity;BMP_temperature;BMP_pressure;BME280_temperature;BME280_humidity;BME280_pressure;Samples;Min_cycle;Max_cycle;Signal;HPM_P1;HPM_P2
2023/08/12 00:01:21;;;;;;;4.25;2.95;;;;;;;;;;5023193;28;20040;-72
2023/08/12 00:03:47;;;;;;;3.00;2.70;;;;;;;;;;5033665;28;20063;-72
2023/08/12 00:06:13;;;;;;;5.30;3.17;;;;;;;;;;5018623;28;20094;-69
2023/08/12 00:08:38;;;;;;;2.90;2.60;;;;;;;;;;5025728;28;20045;-70
2023/08/12 00:11:04;;;;;;;4.28;2.67;;;;;;;;;;5033551;28;20037;-69
2023/08/12 00:13:29;;;;;;;4.72;3.08;;;;;;;;;;5043232;28;20052;-71
2023/08/12 00:15:54;;;;;;;4.40;3.35;;;;;;;;;;5033373;28;20043;-70
2023/08/12 00:18:20;;;;;;;2.97;2.40;;;;;;;;;;5019891;28;20033;-70
2023/08/12 00:20:45;;;;;;;4.70;2.53;;;;;;;;;;5028418;28;20092;-70
2023/08/12 00:23:11;;;;;;;3.95;3.05;;;;;;;;;;5033175;28;20076;-69
2023/08/12 00:25:36;;;;;;;3.25;2.83;;;;;;;;;;5034890;28;20098;-70
2023/08/12 00:28:02;;;;;;;3.25;2.80;;;;;;;;;;5028259;28;20493;-70
2023/08/12 00:30:27;;;;;;;4.30;2.88;;;;;;;;;;5036074;28;20144;-70
2023/08/12 00:32:52;;;;;;;3.65;2.80;;;;;;;;;;5035664;28;20037;-72
2023/08/12 00:35:18;;;;;;;3.08;2.72;;;;;;;;;;5032576;28;20029;-70
2023/08/12 00:37:43;;;;;;;3.10;2.63;;;;;;;;;;5028779;28;20039;-71
2023/08/12 00:40:09;;;;;;;5.18;2.45;;;;;;;;;;5036823;28;20428;-70
2023/08/12 00:42:35;;;;;;;3.15;2.72;;;;;;;;;;5037299;28;20044;-70
2023/08/12 00:45:00;;;;;;;3.25;2.72;;;;;;;;;;5033580;28;20036;-70
2023/08/12 00:47:27;;;;;;;3.50;2.78;;;;;;;;;;5031928;28;20033;-72
2023/08/12 00:49:52;;;;;;;5.35;2.92;;;;;;;;;;5029683;28;20037;-70
2023/08/12 00:52:18;;;;;;;3.25;2.30;;;;;;;;;;5031561;28;20070;-71
2023/08/12 00:54:44;;;;;;;2.90;2.60;;;;;;;;;;5035229;28;20029;-70
2023/08/12 00:57:10;;;;;;;7.97;3.35;;;;;;;;;;5035392;28;20076;-70
2023/08/12 00:59:39;;;;;;;3.75;2.60;;;;;;;;;;5030507;28;20124;-73
2023/08/12 01:02:05;;;;;;;4.80;2.55;;;;;;;;;;5032764;28;20041;-73
2023/08/12 01:04:30;;;;;;;4.55;2.50;;;;;;;;;;5027365;28;20048;-70
2023/08/12 01:06:55;;;;;;;3.65;2.38;;;;;;;;;;5032914;28;20316;-72
2023/08/12 01:09:21;;;;;;;2.83;2.30;;;;;;;;;;5031025;28;20036;-70
2023/08/12 01:11:53;;;;;;;2.55;2.35;;;;;;;;;;5033005;28;20489;-69
2023/08/12 01:14:51;;;;;;;4.25;2.60;;;;;;;;;;5033298;28;20033;-70
2023/08/12 01:17:17;;;;;;;5.65;2.80;;;;;;;;;;5009539;28;20046;-73
2023/08/12 01:19:43;;;;;;;4.88;2.75;;;;;;;;;;5015331;28;20567;-73
2023/08/12 01:22:11;;;;;;;2.60;2.40;;;;;;;;;;5034316;28;20041;-72
2023/08/12 01:24:41;;;;;;;5.65;3.08;;;;;;;;;;5026138;28;20048;-72
2023/08/12 01:27:09;;;;;;;3.35;2.60;;;;;;;;;;5038145;28;20029;-71
2023/08/12 01:29:37;;;;;;;4.05;2.90;;;;;;;;;;5026579;28;20559;-71
2023/08/12 01:32:18;;;;;;;3.15;2.63;;;;;;;;;;5037955;28;20059;-71
2023/08/12 01:34:53;;;;;;;2.83;2.53;;;;;;;;;;5037366;28;20037;-72
2023/08/12 01:37:28;;;;;;;4.00;3.13;;;;;;;;;;5038788;28;20037;-71
2023/08/12 01:39:55;;;;;;;5.18;2.42;;;;;;;;;;5023758;28;20039;-71
2023/08/12 01:42:21;;;;;;;6.38;3.38;;;;;;;;;;5018485;28;20037;-69
2023/08/12 01:44:47;;;;;;;3.17;2.65;;;;;;;;;;5023199;28;20741;-71
2023/08/12 01:47:13;;;;;;;3.70;3.28;;;;;;;;;;5034190;28;20068;-70
2023/08/12 01:49:38;;;;;;;5.07;3.00;;;;;;;;;;5024697;28;20072;-72
2023/08/12 01:52:41;;;;;;;6.75;3.25;;;;;;;;;;5035352;23;20033;-72
2023/08/12 01:55:51;;;;;;;5.85;2.90;;;;;;;;;;5028594;28;20044;-72
2023/08/12 02:01:46;;;;;;;4.28;2.53;;;;;;;;;;5023461;28;20486;-71
2023/08/12 02:04:11;;;;;;;2.97;2.47;;;;;;;;;;5026307;28;20059;-71
2023/08/12 02:06:36;;;;;;;3.40;2.70;;;;;;;;;;5019428;28;21070;-69
2023/08/12 02:09:02;;;;;;;3.53;2.92;;;;;;;;;;5026856;28;20027;-71
2023/08/12 02:11:28;;;;;;;3.85;2.80;;;;;;;;;;5028177;28;20036;-71
2023/08/12 02:13:53;;;;;;;5.38;3.55;;;;;;;;;;5015137;28;20025;-69
2023/08/12 02:16:18;;;;;;;20.77;4.43;;;;;;;;;;5019251;28;20112;-71
2023/08/12 02:18:44;;;;;;;4.50;3.05;;;;;;;;;;5024107;28;20025;-70
2023/08/12 02:21:09;;;;;;;4.82;2.80;;;;;;;;;;5026078;28;20033;-71
2023/08/12 02:23:34;;;;;;;4.45;2.97;;;;;;;;;;5026091;28;20025;-70
2023/08/12 02:26:02;;;;;;;2.97;2.70;;;;;;;;;;5024102;28;20100;-70
2023/08/12 02:28:28;;;;;;;6.85;3.08;;;;;;;;;;5013111;28;20018;-71
2023/08/12 02:30:53;;;;;;;8.05;3.10;;;;;;;;;;5026779;28;20393;-69
2023/08/12 02:33:18;;;;;;;4.22;3.08;;;;;;;;;;5026238;28;20124;-71
2023/08/12 02:35:44;;;;;;;3.67;3.05;;;;;;;;;;5026339;28;20018;-72
2023/08/12 02:38:09;;;;;;;5.88;2.88;;;;;;;;;;5025929;28;20051;-69
2023/08/12 02:40:34;;;;;;;3.25;2.80;;;;;;;;;;5025158;28;20022;-71
2023/08/12 02:43:00;;;;;;;5.45;3.30;;;;;;;;;;5027616;28;20029;-71
2023/08/12 02:45:25;;;;;;;4.75;3.25;;;;;;;;;;5030069;28;20120;-72
2023/08/12 02:47:51;;;;;;;3.70;3.17;;;;;;;;;;5021745;28;20017;-72
2023/08/12 02:50:16;;;;;;;5.22;3.22;;;;;;;;;;5022581;28;20535;-70
2023/08/12 02:52:41;;;;;;;3.30;2.80;;;;;;;;;;5029857;28;20508;-70
2023/08/12 02:55:07;;;;;;;3.80;3.40;;;;;;;;;;5030624;28;20079;-70
2023/08/12 02:57:33;;;;;;;3.22;2.63;;;;;;;;;;5029179;28;20071;-70
2023/08/12 02:59:58;;;;;;;4.70;3.50;;;;;;;;;;5027971;28;20022;-71
2023/08/12 03:02:24;;;;;;;3.65;3.20;;;;;;;;;;5026352;28;20385;-70
2023/08/12 03:04:49;;;;;;;5.20;4.25;;;;;;;;;;5029311;28;20088;-71
2023/08/12 03:07:14;;;;;;;3.47;3.13;;;;;;;;;;5029360;28;20026;-70
2023/08/12 03:09:40;;;;;;;5.53;3.00;;;;;;;;;;5027157;28;20029;-71
2023/08/12 03:12:06;;;;;;;4.00;3.47;;;;;;;;;;5025952;28;20394;-71
2023/08/12 03:14:31;;;;;;;6.43;4.00;;;;;;;;;;5029689;28;20116;-71
2023/08/12 03:16:57;;;;;;;4.50;3.78;;;;;;;;;;5029296;28;20017;-70
2023/08/12 03:19:22;;;;;;;5.72;3.70;;;;;;;;;;5028709;28;20018;-71
2023/08/12 03:21:47;;;;;;;5.85;4.32;;;;;;;;;;5027657;28;20069;-71
2023/08/12 03:24:13;;;;;;;7.30;3.42;;;;;;;;;;5027943;28;20033;-70
2023/08/12 03:26:38;;;;;;;6.50;3.45;;;;;;;;;;5029244;28;20033;-71
2023/08/12 03:29:03;;;;;;;4.97;3.78;;;;;;;;;;5029615;28;20032;-70
2023/08/12 03:31:29;;;;;;;4.32;3.40;;;;;;;;;;5027128;28;20064;-71
2023/08/12 03:33:54;;;;;;;7.43;4.35;;;;;;;;;;5026438;28;20022;-70
2023/08/12 03:36:20;;;;;;;4.78;3.53;;;;;;;;;;5028579;28;20112;-71
2023/08/12 03:38:45;;;;;;;4.60;3.47;;;;;;;;;;5029808;28;20059;-72
2023/08/12 03:41:11;;;;;;;5.80;3.83;;;;;;;;;;5079078;23;20041;-71
2023/08/12 03:43:37;;;;;;;4.38;3.75;;;;;;;;;;5026004;28;20030;-70
2023/08/12 03:46:03;;;;;;;5.25;3.25;;;;;;;;;;5022412;28;20037;-69
2023/08/12 03:48:28;;;;;;;4.93;3.92;;;;;;;;;;5024415;28;20026;-72
2023/08/12 03:50:53;;;;;;;4.50;4.10;;;;;;;;;;5029536;28;20067;-70
2023/08/12 03:53:19;;;;;;;5.70;4.25;;;;;;;;;;5028312;28;20029;-70
2023/08/12 03:55:44;;;;;;;3.63;3.20;;;;;;;;;;5024343;28;20021;-70
2023/08/12 03:58:09;;;;;;;5.63;3.70;;;;;;;;;;5029941;28;20024;-72
2023/08/12 04:00:35;;;;;;;4.43;4.00;;;;;;;;;;5028088;28;20575;-70
2023/08/12 04:03:00;;;;;;;4.07;3.70;;;;;;;;;;5028350;28;20101;-70
2023/08/12 04:05:26;;;;;;;4.05;3.13;;;;;;;;;;5027597;28;20112;-71
2023/08/12 04:07:51;;;;;;;4.38;3.03;;;;;;;;;;5026961;28;20493;-71
2023/08/12 04:10:17;;;;;;;4.72;3.20;;;;;;;;;;5029142;28;20030;-70
2023/08/12 04:12:43;;;;;;;4.60;3.30;;;;;;;;;;5027623;28;20248;-71
2023/08/12 04:15:09;;;;;;;4.32;3.53;;;;;;;;;;5028363;28;20071;-72
2023/08/12 04:17:35;;;;;;;4.38;3.38;;;;;;;;;;5022805;28;20030;-71
2023/08/12 04:20:00;;;;;;;3.95;3.30;;;;;;;;;;5023607;28;20108;-69
2023/08/12 04:22:26;;;;;;;5.00;3.40;;;;;;;;;;5085119;23;20134;-71
2023/08/12 04:24:51;;;;;;;4.43;3.28;;;;;;;;;;5078892;28;20099;-71
2023/08/12 04:27:16;;;;;;;4.50;3.40;;;;;;;;;;5080502;28;20029;-69
2023/08/12 04:29:42;;;;;;;4.72;3.65;;;;;;;;;;5074891;28;20440;-70
2023/08/12 04:32:08;;;;;;;4.85;3.63;;;;;;;;;;5091498;23;20051;-70
2023/08/12 04:34:33;;;;;;;3.78;2.95;;;;;;;;;;5057587;28;20024;-70
2023/08/12 04:36:58;;;;;;;3.33;3.05;;;;;;;;;;5062563;28;20021;-71
2023/08/12 04:39:25;;;;;;;4.22;3.72;;;;;;;;;;5052694;28;20056;-70
2023/08/12 04:41:50;;;;;;;3.45;3.13;;;;;;;;;;5052181;28;20021;-70
2023/08/12 04:44:16;;;;;;;4.03;2.95;;;;;;;;;;5046818;28;20021;-70
2023/08/12 04:46:41;;;;;;;6.68;3.90;;;;;;;;;;5038213;28;20033;-72
2023/08/12 04:49:07;;;;;;;3.00;2.63;;;;;;;;;;5045228;28;20025;-71
2023/08/12 04:51:32;;;;;;;6.43;4.18;;;;;;;;;;5076722;23;20110;-72
2023/08/12 04:53:58;;;;;;;7.60;3.85;;;;;;;;;;5059158;28;20029;-69
2023/08/12 04:56:24;;;;;;;3.55;3.25;;;;;;;;;;5044394;28;20104;-71
2023/08/12 04:58:49;;;;;;;3.53;2.90;;;;;;;;;;5051290;28;20024;-71
2023/08/12 05:01:17;;;;;;;5.68;4.15;;;;;;;;;;5047638;28;20132;-72
2023/08/12 05:03:42;;;;;;;6.28;4.43;;;;;;;;;;5035863;28;20434;-72
2023/08/12 05:06:08;;;;;;;6.95;4.65;;;;;;;;;;5035083;28;20022;-71
2023/08/12 05:08:33;;;;;;;6.10;4.50;;;;;;;;;;5039453;28;20112;-71
2023/08/12 05:10:58;;;;;;;3.53;3.13;;;;;;;;;;5039351;28;20083;-70
2023/08/12 05:13:24;;;;;;;4.00;3.35;;;;;;;;;;5039250;28;20028;-70
2023/08/12 05:15:49;;;;;;;5.78;4.40;;;;;;;;;;5034994;28;20389;-71
2023/08/12 05:18:15;;;;;;;3.95;3.22;;;;;;;;;;5041978;28;20017;-71
2023/08/12 05:20:41;;;;;;;3.53;2.90;;;;;;;;;;5038447;28;20497;-71
2023/08/12 05:23:07;;;;;;;3.85;3.30;;;;;;;;;;5039335;28;20029;-72
2023/08/12 05:25:32;;;;;;;5.25;3.92;;;;;;;;;;5031839;28;20047;-72
2023/08/12 05:27:58;;;;;;;6.15;3.70;;;;;;;;;;5033159;28;20021;-70
2023/08/12 05:30:23;;;;;;;4.18;3.15;;;;;;;;;;5032358;28;20083;-71
2023/08/12 05:32:49;;;;;;;3.47;3.17;;;;;;;;;;5029795;28;20033;-71
2023/08/12 05:35:14;;;;;;;4.63;3.60;;;;;;;;;;5032617;28;20714;-70
2023/08/12 05:37:39;;;;;;;4.45;3.20;;;;;;;;;;5031008;28;20472;-72
2023/08/12 05:40:08;;;;;;;4.10;3.55;;;;;;;;;;5033909;28;20124;-70
2023/08/12 05:42:34;;;;;;;4.78;3.80;;;;;;;;;;5032710;28;20036;-69
2023/08/12 05:44:59;;;;;;;4.50;3.85;;;;;;;;;;5037640;28;20597;-69
2023/08/12 05:47:24;;;;;;;4.10;3.00;;;;;;;;;;5037817;28;20033;-70
2023/08/12 05:49:50;;;;;;;3.55;2.58;;;;;;;;;;5039718;28;20484;-71
2023/08/12 05:52:15;;;;;;;3.20;2.90;;;;;;;;;;5029755;28;20040;-69
2023/08/12 05:54:41;;;;;;;5.20;4.15;;;;;;;;;;5005117;28;20738;-71
2023/08/12 05:57:06;;;;;;;5.07;3.45;;;;;;;;;;5004485;28;20029;-74
2023/08/12 05:59:31;;;;;;;4.00;3.17;;;;;;;;;;5010198;28;20018;-71
2023/08/12 06:01:57;;;;;;;6.68;3.78;;;;;;;;;;5008800;28;20029;-69
2023/08/12 06:04:22;;;;;;;5.35;3.33;;;;;;;;;;5006708;28;20053;-72
2023/08/12 06:06:47;;;;;;;5.68;3.63;;;;;;;;;;5002519;28;20026;-70
2023/08/12 06:09:13;;;;;;;3.55;3.08;;;;;;;;;;4997366;28;20037;-68
2023/08/12 06:11:38;;;;;;;4.25;3.63;;;;;;;;;;5001367;28;20512;-71
2023/08/12 06:14:04;;;;;;;2.67;2.35;;;;;;;;;;5014873;28;20032;-71
2023/08/12 06:16:29;;;;;;;3.22;2.92;;;;;;;;;;5009079;28;20047;-71
2023/08/12 06:18:54;;;;;;;2.70;2.50;;;;;;;;;;5004063;28;20378;-71
2023/08/12 06:21:20;;;;;;;3.20;2.90;;;;;;;;;;5009999;28;20056;-69
2023/08/12 06:23:45;;;;;;;2.60;2.38;;;;;;;;;;5014192;28;20410;-72
2023/08/12 06:26:11;;;;;;;3.15;2.42;;;;;;;;;;4998802;28;20065;-68
2023/08/12 06:28:36;;;;;;;2.88;2.67;;;;;;;;;;4985296;28;20053;-72
2023/08/12 06:31:01;;;;;;;3.42;2.83;;;;;;;;;;4998168;28;20382;-72
2023/08/12 06:33:27;;;;;;;4.95;3.30;;;;;;;;;;5006322;28;20167;-72
2023/08/12 06:35:52;;;;;;;5.05;3.35;;;;;;;;;;4996507;28;20041;-72
2023/08/12 06:38:17;;;;;;;3.80;2.90;;;;;;;;;;4995504;28;20052;-69
2023/08/12 06:40:43;;;;;;;4.72;3.72;;;;;;;;;;4988205;28;20160;-72
2023/08/12 06:43:09;;;;;;;5.68;3.95;;;;;;;;;;4992971;28;20422;-72
2023/08/12 06:45:34;;;;;;;6.47;3.70;;;;;;;;;;4997696;28;20055;-71
2023/08/12 06:48:02;;;;;;;4.90;4.05;;;;;;;;;;4986496;28;20077;-72
2023/08/12 06:50:27;;;;;;;5.05;3.97;;;;;;;;;;4986223;28;20048;-72
2023/08/12 06:52:53;;;;;;;5.60;4.03;;;;;;;;;;5004638;28;20049;-71
2023/08/12 06:55:18;;;;;;;5.72;4.72;;;;;;;;;;4985020;28;20054;-71
2023/08/12 06:57:43;;;;;;;4.00;3.63;;;;;;;;;;5001781;28;20095;-72
2023/08/12 07:00:09;;;;;;;3.85;2.92;;;;;;;;;;5005849;28;20604;-71
2023/08/12 07:02:35;;;;;;;3.78;3.33;;;;;;;;;;4994866;28;20678;-72
2023/08/12 07:05:01;;;;;;;4.20;3.80;;;;;;;;;;4994281;28;20041;-72
2023/08/12 07:07:26;;;;;;;3.20;2.90;;;;;;;;;;5006641;28;20111;-71
2023/08/12 07:09:52;;;;;;;3.35;3.05;;;;;;;;;;4996590;28;20109;-71
2023/08/12 07:12:17;;;;;;;3.97;2.67;;;;;;;;;;4996545;28;20521;-72
2023/08/12 07:14:42;;;;;;;5.78;4.28;;;;;;;;;;4993146;28;20521;-70
2023/08/12 07:17:08;;;;;;;8.35;4.82;;;;;;;;;;5001396;28;20494;-73
2023/08/12 07:19:33;;;;;;;7.20;5.78;;;;;;;;;;4992696;28;20041;-72
2023/08/12 07:21:58;;;;;;;9.18;5.80;;;;;;;;;;5015098;23;20117;-71
2023/08/12 07:24:24;;;;;;;6.90;5.50;;;;;;;;;;4994807;28;20113;-71
2023/08/12 07:26:49;;;;;;;4.63;3.60;;;;;;;;;;5014292;28;20531;-72
2023/08/12 07:29:14;;;;;;;4.03;3.67;;;;;;;;;;5015974;28;20044;-70
2023/08/12 07:31:40;;;;;;;8.43;5.07;;;;;;;;;;5016166;28;20048;-72
2023/08/12 07:34:05;;;;;;;3.55;3.25;;;;;;;;;;5015450;28;20521;-71
2023/08/12 07:36:32;;;;;;;4.82;3.40;;;;;;;;;;5002169;28;20038;-71
2023/08/12 07:38:58;;;;;;;3.80;3.30;;;;;;;;;;5004639;28;20038;-70
2023/08/12 07:41:27;;;;;;;4.22;3.22;;;;;;;;;;4997195;28;20462;-72
2023/08/12 07:43:52;;;;;;;4.45;3.95;;;;;;;;;;4997060;28;20034;-71
2023/08/12 07:46:18;;;;;;;5.85;4.95;;;;;;;;;;4997031;28;20092;-73
2023/08/12 07:48:43;;;;;;;6.47;3.90;;;;;;;;;;4998223;28;20050;-72
2023/08/12 07:51:09;;;;;;;5.40;4.25;;;;;;;;;;5011047;28;20087;-71
2023/08/12 07:53:34;;;;;;;6.78;4.78;;;;;;;;;;5003735;28;20429;-72
2023/08/12 07:56:00;;;;;;;6.88;5.22;;;;;;;;;;5008276;28;20502;-72
2023/08/12 07:58:25;;;;;;;6.25;4.68;;;;;;;;;;4997179;28;20514;-71
2023/08/12 08:00:54;;;;;;;10.00;5.70;;;;;;;;;;4996498;28;20037;-71
2023/08/12 08:03:19;;;;;;;6.78;5.40;;;;;;;;;;4996392;28;20117;-70
2023/08/12 08:05:46;;;;;;;8.60;5.80;;;;;;;;;;4988634;28;20037;-71
2023/08/12 08:08:12;;;;;;;6.32;5.22;;;;;;;;;;5004259;28;20045;-70
2023/08/12 08:10:38;;;;;;;5.40;4.88;;;;;;;;;;5002309;28;20092;-73
2023/08/12 08:13:03;;;;;;;6.43;5.63;;;;;;;;;;5001242;28;20386;-72
2023/08/12 08:15:29;;;;;;;8.43;5.93;;;;;;;;;;4993221;28;20716;-72
2023/08/12 08:17:54;;;;;;;9.85;6.18;;;;;;;;;;5003199;28;20117;-71
2023/08/12 08:20:19;;;;;;;6.15;5.18;;;;;;;;;;4992896;28;20030;-71
2023/08/12 08:22:45;;;;;;;6.30;4.40;;;;;;;;;;4999780;28;20041;-72
2023/08/12 08:25:10;;;;;;;5.95;3.60;;;;;;;;;;5001620;28;20038;-72
2023/08/12 08:27:35;;;;;;;6.70;4.55;;;;;;;;;;4991113;28;20045;-71
2023/08/12 08:30:01;;;;;;;8.25;5.85;;;;;;;;;;5000958;28;20040;-71
2023/08/12 08:32:26;;;;;;;7.78;5.07;;;;;;;;;;5013730;28;20474;-71
2023/08/12 08:34:51;;;;;;;4.88;4.40;;;;;;;;;;4995765;28;20037;-71
2023/08/12 08:37:17;;;;;;;8.18;6.15;;;;;;;;;;5004919;28;20049;-71
2023/08/12 08:39:42;;;;;;;6.85;4.90;;;;;;;;;;5008189;28;20673;-71
2023/08/12 08:42:11;;;;;;;7.28;5.88;;;;;;;;;;4993545;28;20133;-72
2023/08/12 08:44:41;;;;;;;4.63;3.67;;;;;;;;;;4973914;28;20050;-71
2023/08/12 08:47:07;;;;;;;5.80;4.60;;;;;;;;;;5010881;28;20052;-72
2023/08/12 08:49:34;;;;;;;7.38;5.63;;;;;;;;;;5002810;28;20042;-71
2023/08/12 08:52:00;;;;;;;8.10;5.93;;;;;;;;;;5006535;28;20041;-71
2023/08/12 08:54:26;;;;;;;9.90;6.45;;;;;;;;;;4996388;28;20082;-71
2023/08/12 08:56:52;;;;;;;8.13;5.35;;;;;;;;;;4989722;28;20068;-71
2023/08/12 08:59:17;;;;;;;6.05;5.10;;;;;;;;;;5009534;28;20057;-71
2023/08/12 09:01:46;;;;;;;5.25;4.72;;;;;;;;;;4998628;28;20091;-71
2023/08/12 09:04:13;;;;;;;5.93;3.75;;;;;;;;;;5006743;28;20509;-73
2023/08/12 09:06:39;;;;;;;6.60;5.80;;;;;;;;;;5007171;28;20676;-70
2023/08/12 09:09:10;;;;;;;7.13;6.18;;;;;;;;;;5010568;28;20053;-70
2023/08/12 09:11:38;;;;;;;3.63;3.33;;;;;;;;;;4960058;28;20597;-69
2023/08/12 09:14:04;;;;;;;8.63;6.38;;;;;;;;;;4988396;28;20497;-70
2023/08/12 09:16:30;;;;;;;6.97;5.50;;;;;;;;;;4996706;28;20044;-70
2023/08/12 09:18:56;;;;;;;6.93;5.30;;;;;;;;;;5007728;28;20086;-71
2023/08/12 09:21:21;;;;;;;7.25;5.97;;;;;;;;;;5004628;28;20595;-69
2023/08/12 09:23:47;;;;;;;7.97;5.20;;;;;;;;;;4997415;28;20033;-70
2023/08/12 09:26:14;;;;;;;9.43;6.15;;;;;;;;;;5010666;28;20052;-70
2023/08/12 09:28:40;;;;;;;7.05;5.72;;;;;;;;;;4989056;28;20176;-70
2023/08/12 09:31:06;;;;;;;9.63;6.55;;;;;;;;;;4966657;28;20479;-70
2023/08/12 09:33:32;;;;;;;8.43;5.82;;;;;;;;;;5007750;28;20041;-71
2023/08/12 09:35:57;;;;;;;6.03;5.43;;;;;;;;;;5005892;28;20607;-70
2023/08/12 09:38:23;;;;;;;6.78;5.50;;;;;;;;;;4992010;28;20046;-70
2023/08/12 09:40:52;;;;;;;7.28;5.72;;;;;;;;;;5003655;28;20049;-70
2023/08/12 09:43:17;;;;;;;6.88;5.85;;;;;;;;;;4998813;28;20037;-71
2023/08/12 09:45:45;;;;;;;7.65;6.20;;;;;;;;;;5002759;28;20045;-71
2023/08/12 09:48:10;;;;;;;6.93;4.68;;;;;;;;;;5003586;28;20041;-71
2023/08/12 09:50:36;;;;;;;8.10;5.63;;;;;;;;;;5010060;28;20051;-71
2023/08/12 09:53:03;;;;;;;6.50;5.80;;;;;;;;;;4997334;28;20495;-70
2023/08/12 09:55:30;;;;;;;5.35;4.70;;;;;;;;;;4982516;28;20049;-71
2023/08/12 09:57:56;;;;;;;7.22;5.15;;;;;;;;;;4976588;28;20037;-72
2023/08/12 10:00:23;;;;;;;5.97;5.22;;;;;;;;;;5011299;28;20103;-72
2023/08/12 10:02:51;;;;;;;7.78;5.00;;;;;;;;;;5007204;28;20053;-72
2023/08/12 10:05:23;;;;;;;6.32;4.85;;;;;;;;;;4984128;28;20033;-71
2023/08/12 10:07:49;;;;;;;4.90;4.38;;;;;;;;;;4989520;28;20789;-72
2023/08/12 10:10:15;;;;;;;3.75;2.97;;;;;;;;;;5002424;28;20041;-72
2023/08/12 10:12:41;;;;;;;5.50;4.50;;;;;;;;;;5009025;28;20065;-73
2023/08/12 10:15:08;;;;;;;3.85;3.35;;;;;;;;;;5007754;28;20069;-73
2023/08/12 10:17:34;;;;;;;3.80;2.83;;;;;;;;;;5000239;28;20501;-72
2023/08/12 10:20:04;;;;;;;3.45;3.13;;;;;;;;;;4989828;28;20081;-73
2023/08/12 10:22:30;;;;;;;3.77;3.47;;;;;;;;;;5011053;28;20040;-73
2023/08/12 10:24:59;;;;;;;4.25;3.80;;;;;;;;;;4995473;28;20281;-73
2023/08/12 10:27:25;;;;;;;3.67;3.15;;;;;;;;;;5007965;28;20089;-71
2023/08/12 10:29:50;;;;;;;3.55;2.70;;;;;;;;;;4999001;28;20042;-73
2023/08/12 10:32:16;;;;;;;3.40;2.85;;;;;;;;;;4997251;28;20045;-71
2023/08/12 10:34:42;;;;;;;3.00;2.80;;;;;;;;;;5000561;28;20037;-72
2023/08/12 10:37:10;;;;;;;3.22;2.92;;;;;;;;;;4999847;28;20055;-72
2023/08/12 10:39:36;;;;;;;4.20;3.30;;;;;;;;;;5001457;28;20130;-73
2023/08/12 10:42:01;;;;;;;3.92;3.42;;;;;;;;;;5001155;28;20536;-73
2023/08/12 10:44:41;;;;;;;4.30;3.90;;;;;;;;;;5004785;28;20060;-72
2023/08/12 10:47:10;;;;;;;3.55;2.97;;;;;;;;;;4959018;28;20113;-73
2023/08/12 10:49:43;;;;;;;4.88;3.65;;;;;;;;;;4993311;28;20091;-72
2023/08/12 10:52:28;;;;;;;3.85;3.45;;;;;;;;;;5004791;28;20045;-72
2023/08/12 10:54:54;;;;;;;2.95;2.72;;;;;;;;;;5002547;28;20107;-72
2023/08/12 10:57:38;;;;;;;3.05;2.83;;;;;;;;;;4974828;28;20497;-72
2023/08/12 11:00:04;;;;;;;4.07;3.78;;;;;;;;;;4991143;28;20083;-73
2023/08/12 11:02:33;;;;;;;3.13;2.92;;;;;;;;;;5001947;28;20049;-74
2023/08/12 11:05:08;;;;;;;5.15;3.78;;;;;;;;;;5001729;28;20535;-72
2023/08/12 11:07:39;;;;;;;3.85;3.50;;;;;;;;;;4996562;28;20041;-72
2023/08/12 11:10:05;;;;;;;3.03;2.83;;;;;;;;;;5003180;28;20086;-72
2023/08/12 11:12:33;;;;;;;3.67;2.95;;;;;;;;;;5001120;28;20661;-72
2023/08/12 11:15:03;;;;;;;3.47;3.17;;;;;;;;;;5014204;28;20746;-72
2023/08/12 11:17:37;;;;;;;3.15;2.85;;;;;;;;;;5019425;28;20049;-72
2023/08/12 11:20:07;;;;;;;3.83;2.90;;;;;;;;;;5003105;28;20038;-72
2023/08/12 11:22:37;;;;;;;2.65;2.45;;;;;;;;;;5013543;28;20069;-73
2023/08/12 11:25:04;;;;;;;3.75;3.38;;;;;;;;;;4998283;28;20038;-73
2023/08/12 11:27:43;;;;;;;4.03;2.95;;;;;;;;;;5005492;28;20474;-74
2023/08/12 11:30:10;;;;;;;3.83;3.40;;;;;;;;;;5009663;28;20064;-72
2023/08/12 11:32:40;;;;;;;3.90;3.35;;;;;;;;;;5001197;28;20957;-74
2023/08/12 11:35:09;;;;;;;2.97;2.67;;;;;;;;;;5005904;28;20067;-72
2023/08/12 11:37:39;;;;;;;4.30;3.10;;;;;;;;;;4972906;28;20042;-73
2023/08/12 11:40:06;;;;;;;3.78;3.13;;;;;;;;;;5006337;28;20042;-72
2023/08/12 11:42:32;;;;;;;3.03;2.72;;;;;;;;;;4978440;28;20086;-73
2023/08/12 11:44:57;;;;;;;3.10;2.80;;;;;;;;;;4994980;28;20141;-73
2023/08/12 11:47:23;;;;;;;2.75;2.55;;;;;;;;;;5000922;28;20049;-72
2023/08/12 11:49:48;;;;;;;3.03;2.83;;;;;;;;;;4992140;28;20088;-72
2023/08/12 11:52:14;;;;;;;3.03;2.80;;;;;;;;;;4994650;28;20042;-72
2023/08/12 11:54:40;;;;;;;3.05;2.75;;;;;;;;;;5002701;28;20095;-73
2023/08/12 11:57:06;;;;;;;3.08;2.88;;;;;;;;;;5009517;28;20052;-72
2023/08/12 11:59:31;;;;;;;3.97;3.58;;;;;;;;;;4981698;28;20072;-73
2023/08/12 12:01:57;;;;;;;3.60;2.90;;;;;;;;;;5008883;28;20041;-72
2023/08/12 12:04:23;;;;;;;2.97;2.70;;;;;;;;;;4994486;28;20121;-73
2023/08/12 12:06:49;;;;;;;3.03;2.75;;;;;;;;;;5004936;28;20037;-72
2023/08/12 12:09:17;;;;;;;4.32;2.95;;;;;;;;;;5007174;28;20052;-73
2023/08/12 12:11:44;;;;;;;3.08;2.70;;;;;;;;;;5008175;28;20120;-73
2023/08/12 12:14:11;;;;;;;3.30;3.00;;;;;;;;;;4982738;28;20218;-73
2023/08/12 12:16:44;;;;;;;2.85;2.60;;;;;;;;;;4999410;28;20551;-72
2023/08/12 12:19:19;;;;;;;2.60;2.40;;;;;;;;;;4998560;28;20408;-73
2023/08/12 12:21:49;;;;;;;2.67;2.22;;;;;;;;;;4995161;28;20079;-73
2023/08/12 12:24:15;;;;;;;;;;;;;;;;;;4997064;28;20060;-72
2023/08/12 12:26:41;;;;;;;2.67;2.28;;;;;;;;;;4992624;28;19936;-72
2023/08/12 12:29:07;;;;;;;3.17;2.30;;;;;;;;;;5010293;28;20555;-73
2023/08/12 12:31:34;;;;;;;2.10;2.00;;;;;;;;;;4999130;28;20080;-73
2023/08/12 12:34:00;;;;;;;2.00;1.85;;;;;;;;;;5009846;28;20059;-73
2023/08/12 12:36:26;;;;;;;2.22;2.03;;;;;;;;;;5010530;28;20040;-73
2023/08/12 12:38:52;;;;;;;2.38;1.60;;;;;;;;;;5000020;28;20045;-73
2023/08/12 12:41:17;;;;;;;1.70;1.60;;;;;;;;;;5003363;28;20061;-72
2023/08/12 12:43:42;;;;;;;2.13;1.83;;;;;;;;;;4985642;28;20049;-72
2023/08/12 12:46:08;;;;;;;1.70;1.60;;;;;;;;;;5003577;28;20135;-73
2023/08/12 12:48:34;;;;;;;1.98;1.88;;;;;;;;;;4999760;28;20713;-72
2023/08/12 12:50:59;;;;;;;1.90;1.80;;;;;;;;;;4990871;28;20071;-72
2023/08/12 12:53:25;;;;;;;2.00;1.90;;;;;;;;;;4993109;28;20398;-73
2023/08/12 12:55:50;;;;;;;2.20;2.00;;;;;;;;;;5009289;28;20041;-72
2023/08/12 12:58:16;;;;;;;1.90;1.80;;;;;;;;;;4988331;28;20124;-73
2023/08/12 13:00:41;;;;;;;2.90;1.75;;;;;;;;;;5005171;28;20431;-73
2023/08/12 13:03:07;;;;;;;2.03;1.85;;;;;;;;;;5003803;28;20631;-73
2023/08/12 13:05:32;;;;;;;2.20;1.90;;;;;;;;;;5009048;28;20094;-72
2023/08/12 13:07:57;;;;;;;2.10;1.90;;;;;;;;;;4993168;28;20532;-72
2023/08/12 13:10:23;;;;;;;2.03;1.92;;;;;;;;;;5001632;28;20061;-72
2023/08/12 13:12:48;;;;;;;2.25;1.98;;;;;;;;;;4986346;28;20571;-72
2023/08/12 13:15:14;;;;;;;2.30;2.10;;;;;;;;;;5006184;28;20098;-72
2023/08/12 13:17:40;;;;;;;2.00;1.80;;;;;;;;;;5005727;28;20034;-74
2023/08/12 13:20:06;;;;;;;1.98;1.88;;;;;;;;;;5004956;28;20040;-73
2023/08/12 13:22:31;;;;;;;2.95;1.73;;;;;;;;;;4999640;28;20045;-74
2023/08/12 13:24:56;;;;;;;2.20;2.00;;;;;;;;;;5008620;28;20047;-73
2023/08/12 13:27:23;;;;;;;1.85;1.75;;;;;;;;;;4985691;28;20470;-72
2023/08/12 13:29:48;;;;;;;1.75;1.63;;;;;;;;;;5007161;28;20543;-72
2023/08/12 13:32:14;;;;;;;2.00;1.90;;;;;;;;;;5001946;28;20052;-73
2023/08/12 13:34:39;;;;;;;2.40;2.08;;;;;;;;;;4982701;28;20061;-73
2023/08/12 13:37:05;;;;;;;3.88;2.20;;;;;;;;;;5005582;28;20047;-73
2023/08/12 13:39:30;;;;;;;1.83;1.73;;;;;;;;;;5003053;28;20041;-73
2023/08/12 13:41:56;;;;;;;2.45;2.20;;;;;;;;;;4991761;28;20464;-73
2023/08/12 13:44:22;;;;;;;2.20;1.90;;;;;;;;;;5005597;28;20496;-73
2023/08/12 13:46:47;;;;;;;1.90;1.80;;;;;;;;;;5012139;28;20072;-73
2023/08/12 13:49:12;;;;;;;3.72;2.03;;;;;;;;;;4999476;28;20057;-73
2023/08/12 13:51:38;;;;;;;2.00;1.80;;;;;;;;;;5004425;28;20115;-73
2023/08/12 13:54:03;;;;;;;2.10;1.90;;;;;;;;;;5004535;28;20068;-73
2023/08/12 13:56:29;;;;;;;2.13;1.92;;;;;;;;;;4996275;28;20037;-73
2023/08/12 13:58:56;;;;;;;2.22;2.00;;;;;;;;;;4985978;28;20037;-72
2023/08/12 14:01:21;;;;;;;1.65;1.55;;;;;;;;;;5003808;28;20894;-73
2023/08/12 14:03:47;;;;;;;1.90;1.80;;;;;;;;;;4996847;28;20080;-74
2023/08/12 14:06:12;;;;;;;2.38;2.13;;;;;;;;;;5007463;28;20042;-74
2023/08/12 14:08:37;;;;;;;2.55;1.90;;;;;;;;;;5003161;28;20060;-74
2023/08/12 14:11:03;;;;;;;2.20;2.00;;;;;;;;;;4984723;28;20065;-74
2023/08/12 14:13:29;;;;;;;2.25;2.00;;;;;;;;;;5004545;28;20046;-74
2023/08/12 14:15:54;;;;;;;2.25;2.05;;;;;;;;;;4984307;28;20072;-73
2023/08/12 14:18:19;;;;;;;2.30;2.10;;;;;;;;;;4991765;28;20048;-74
2023/08/12 14:20:45;;;;;;;1.92;1.83;;;;;;;;;;4996566;28;20045;-74
2023/08/12 14:23:10;;;;;;;3.10;2.00;;;;;;;;;;5006119;28;20112;-73
2023/08/12 14:25:36;;;;;;;2.30;2.10;;;;;;;;;;5003620;28;20041;-73
2023/08/12 14:28:01;;;;;;;2.28;2.08;;;;;;;;;;5001834;28;20057;-74
2023/08/12 14:30:26;;;;;;;3.38;2.03;;;;;;;;;;5008831;28;20041;-73
2023/08/12 14:32:53;;;;;;;3.75;2.00;;;;;;;;;;4993573;28;20683;-73
2023/08/12 14:35:19;;;;;;;2.58;2.00;;;;;;;;;;5008787;28;20230;-73
2023/08/12 14:37:45;;;;;;;2.40;1.50;;;;;;;;;;5001599;28;20493;-73
2023/08/12 14:40:10;;;;;;;1.70;1.60;;;;;;;;;;5000378;28;20045;-73
2023/08/12 14:42:36;;;;;;;1.60;1.50;;;;;;;;;;5006568;28;20037;-73